sensor_id;sensor_type;location;lat;lon;timestamp;pressure;altitude;pressure_sealevel;temperature;humidity
21781;BME280;52576;53.614;9.894;2023-01-27T00:01:40;102225.78;;;3.72;82.65
21781;BME280;52576;53.614;9.894;2023-01-27T00:03:43;102218.88;;;3.73;82.64
21781;BME280;52576;53.614;9.894;2023-01-27T00:05:47;102223.19;;;3.74;82.56
21781;BME280;52576;53.614;9.894;2023-01-27T00:07:50;102227.47;;;3.77;82.58
21781;BME280;52576;53.614;9.894;2023-01-27T00:09:54;102232.66;;;3.77;82.54
21781;BME280;52576;53.614;9.894;2023-01-27T00:11:58;102226.59;;;3.76;82.43
21781;BME280;52576;53.614;9.894;2023-01-27T00:14:18;102226.59;;;3.76;82.65
21781;BME280;52576;53.614;9.894;2023-01-27T00:16:22;102218.00;;;3.74;82.69
21781;BME280;52576;53.614;9.894;2023-01-27T00:18:25;102222.31;;;3.73;82.58
21781;BME280;52576;53.614;9.894;2023-01-27T00:20:28;102223.19;;;3.72;82.52
21781;BME280;52576;53.614;9.894;2023-01-27T00:22:49;102224.06;;;3.71;82.58
21781;BME280;52576;53.614;9.894;2023-01-27T00:25:17;102230.97;;;3.72;82.74
21781;BME280;52576;53.614;9.894;2023-01-27T00:27:20;102226.66;;;3.73;82.71
21781;BME280;52576;53.614;9.894;2023-01-27T00:29:23;102240.47;;;3.73;82.82
21781;BME280;52576;53.614;9.894;2023-01-27T00:31:26;102239.59;;;3.74;82.68
21781;BME280;52576;53.614;9.894;2023-01-27T00:33:47;102238.75;;;3.74;82.87
21781;BME280;52576;53.614;9.894;2023-01-27T00:36:02;102244.78;;;3.74;82.63
21781;BME280;52576;53.614;9.894;2023-01-27T00:38:06;102240.44;;;3.75;82.87
21781;BME280;52576;53.614;9.894;2023-01-27T00:40:10;102246.47;;;3.77;82.82
21781;BME280;52576;53.614;9.894;2023-01-27T00:42:16;102243.03;;;3.77;82.83
21781;BME280;52576;53.614;9.894;2023-01-27T00:44:19;102245.63;;;3.75;82.95
21781;BME280;52576;53.614;9.894;2023-01-27T00:46:24;102241.31;;;3.75;82.98
21781;BME280;52576;53.614;9.894;2023-01-27T00:48:27;102236.97;;;3.76;82.99
21781;BME280;52576;53.614;9.894;2023-01-27T00:50:31;102249.97;;;3.74;83.06
21781;BME280;52576;53.614;9.894;2023-01-27T00:52:34;102248.25;;;3.73;83.14
21781;BME280;52576;53.614;9.894;2023-01-27T00:54:37;102255.16;;;3.74;83.13
21781;BME280;52576;53.614;9.894;2023-01-27T00:56:40;102256.03;;;3.73;83.11
21781;BME280;52576;53.614;9.894;2023-01-27T00:58:44;102254.28;;;3.74;83.22
21781;BME280;52576;53.614;9.894;2023-01-27T01:00:47;102258.63;;;3.73;83.14
21781;BME280;52576;53.614;9.894;2023-01-27T01:02:51;102260.34;;;3.74;83.38
21781;BME280;52576;53.614;9.894;2023-01-27T01:04:54;102259.47;;;3.75;83.26
21781;BME280;52576;53.614;9.894;2023-01-27T01:06:57;102258.59;;;3.77;83.39
21781;BME280;52576;53.614;9.894;2023-01-27T01:09:00;102266.34;;;3.78;83.48
21781;BME280;52576;53.614;9.894;2023-01-27T01:11:04;102259.41;;;3.79;83.34
21781;BME280;52576;53.614;9.894;2023-01-27T01:13:08;102263.72;;;3.80;83.54
21781;BME280;52576;53.614;9.894;2023-01-27T01:15:14;102262.00;;;3.80;83.57
21781;BME280;52576;53.614;9.894;2023-01-27T01:17:18;102273.22;;;3.81;83.63
21781;BME280;52576;53.614;9.894;2023-01-27T01:19:21;102270.63;;;3.81;83.63
21781;BME280;52576;53.614;9.894;2023-01-27T01:21:25;102271.47;;;3.81;83.66
21781;BME280;52576;53.614;9.894;2023-01-27T01:23:28;102274.06;;;3.83;83.73
21781;BME280;52576;53.614;9.894;2023-01-27T01:25:31;102278.38;;;3.82;83.76
21781;BME280;52576;53.614;9.894;2023-01-27T01:27:35;102278.38;;;3.84;83.75
21781;BME280;52576;53.614;9.894;2023-01-27T01:29:39;102282.69;;;3.85;83.65
21781;BME280;52576;53.614;9.894;2023-01-27T01:31:43;102284.41;;;3.84;83.86
21781;BME280;52576;53.614;9.894;2023-01-27T01:33:47;102282.69;;;3.83;83.79
21781;BME280;52576;53.614;9.894;2023-01-27T01:35:51;102279.25;;;3.83;83.76
21781;BME280;52576;53.614;9.894;2023-01-27T01:37:54;102287.03;;;3.83;83.98
21781;BME280;52576;53.614;9.894;2023-01-27T01:39:57;102284.44;;;3.83;83.93
21781;BME280;52576;53.614;9.894;2023-01-27T01:42:00;102281.81;;;3.84;83.88
21781;BME280;52576;53.614;9.894;2023-01-27T01:44:20;102282.69;;;3.85;83.98
21781;BME280;52576;53.614;9.894;2023-01-27T01:46:23;102283.56;;;3.84;83.97
21781;BME280;52576;53.614;9.894;2023-01-27T01:48:43;102286.16;;;3.84;84.00
21781;BME280;52576;53.614;9.894;2023-01-27T01:50:52;102288.75;;;3.84;83.90
21781;BME280;52576;53.614;9.894;2023-01-27T01:52:57;102295.66;;;3.83;84.03
21781;BME280;52576;53.614;9.894;2023-01-27T01:55:02;102293.94;;;3.82;83.96
21781;BME280;52576;53.614;9.894;2023-01-27T01:57:08;102294.81;;;3.83;84.13
21781;BME280;52576;53.614;9.894;2023-01-27T01:59:14;102286.19;;;3.81;84.15
21781;BME280;52576;53.614;9.894;2023-01-27T02:01:19;102305.22;;;3.80;84.13
21781;BME280;52576;53.614;9.894;2023-01-27T02:03:23;102293.13;;;3.79;84.20
21781;BME280;52576;53.614;9.894;2023-01-27T02:05:32;102296.59;;;3.78;84.16
21781;BME280;52576;53.614;9.894;2023-01-27T02:07:40;102301.78;;;3.78;84.08
21781;BME280;52576;53.614;9.894;2023-01-27T02:09:46;102303.53;;;3.77;84.25
21781;BME280;52576;53.614;9.894;2023-01-27T02:11:49;102307.03;;;3.74;84.35
21781;BME280;52576;53.614;9.894;2023-01-27T02:13:53;102298.41;;;3.72;84.38
21781;BME280;52576;53.614;9.894;2023-01-27T02:15:56;102307.91;;;3.72;84.25
21781;BME280;52576;53.614;9.894;2023-01-27T02:17:59;102305.34;;;3.70;84.32
21781;BME280;52576;53.614;9.894;2023-01-27T02:20:06;102303.63;;;3.69;84.41
21781;BME280;52576;53.614;9.894;2023-01-27T02:22:17;102301.06;;;3.68;84.42
21781;BME280;52576;53.614;9.894;2023-01-27T02:24:33;102314.00;;;3.69;84.38
21781;BME280;52576;53.614;9.894;2023-01-27T02:26:42;102308.81;;;3.68;84.53
21781;BME280;52576;53.614;9.894;2023-01-27T02:28:51;102317.47;;;3.68;84.43
21781;BME280;52576;53.614;9.894;2023-01-27T02:30:56;102315.75;;;3.67;84.31
21781;BME280;52576;53.614;9.894;2023-01-27T02:32:59;102314.88;;;3.68;84.58
21781;BME280;52576;53.614;9.894;2023-01-27T02:35:04;102310.56;;;3.67;84.62
21781;BME280;52576;53.614;9.894;2023-01-27T02:37:10;102318.34;;;3.67;84.37
21781;BME280;52576;53.614;9.894;2023-01-27T02:39:16;102323.53;;;3.67;84.61
21781;BME280;52576;53.614;9.894;2023-01-27T02:41:24;102315.75;;;3.67;84.48
21781;BME280;52576;53.614;9.894;2023-01-27T02:43:31;102320.94;;;3.67;84.50
21781;BME280;52576;53.614;9.894;2023-01-27T02:45:34;102330.44;;;3.67;84.50
21781;BME280;52576;53.614;9.894;2023-01-27T02:47:37;102322.69;;;3.65;84.38
21781;BME280;52576;53.614;9.894;2023-01-27T02:49:40;102327.03;;;3.65;84.38
21781;BME280;52576;53.614;9.894;2023-01-27T02:51:43;102319.28;;;3.63;84.42
21781;BME280;52576;53.614;9.894;2023-01-27T02:53:46;102332.28;;;3.62;84.40
21781;BME280;52576;53.614;9.894;2023-01-27T02:55:50;102327.97;;;3.59;84.30
21781;BME280;52576;53.614;9.894;2023-01-27T02:57:53;102338.34;;;3.59;84.48
21781;BME280;52576;53.614;9.894;2023-01-27T03:00:17;102341.81;;;3.58;84.52
21781;BME280;52576;53.614;9.894;2023-01-27T03:02:20;102334.91;;;3.57;84.52
21781;BME280;52576;53.614;9.894;2023-01-27T03:04:31;102342.69;;;3.57;84.50
21781;BME280;52576;53.614;9.894;2023-01-27T03:06:34;102353.94;;;3.56;84.68
21781;BME280;52576;53.614;9.894;2023-01-27T03:08:37;102350.50;;;3.54;84.80
21781;BME280;52576;53.614;9.894;2023-01-27T03:10:40;102342.75;;;3.53;84.86
21781;BME280;52576;53.614;9.894;2023-01-27T03:12:43;102345.34;;;3.51;84.95
21781;BME280;52576;53.614;9.894;2023-01-27T03:14:47;102339.31;;;3.51;84.96
21781;BME280;52576;53.614;9.894;2023-01-27T03:17:10;102341.06;;;3.50;85.09
21781;BME280;52576;53.614;9.894;2023-01-27T03:19:31;102350.56;;;3.48;84.84
21781;BME280;52576;53.614;9.894;2023-01-27T03:21:34;102355.75;;;3.48;85.05
21781;BME280;52576;53.614;9.894;2023-01-27T03:23:37;102348.84;;;3.47;85.02
21781;BME280;52576;53.614;9.894;2023-01-27T03:25:41;102359.22;;;3.47;85.02
21781;BME280;52576;53.614;9.894;2023-01-27T03:27:45;102359.22;;;3.47;85.19
21781;BME280;52576;53.614;9.894;2023-01-27T03:30:03;102368.75;;;3.47;85.15
21781;BME280;52576;53.614;9.894;2023-01-27T03:32:06;102367.03;;;3.46;85.08
21781;BME280;52576;53.614;9.894;2023-01-27T03:34:10;102362.69;;;3.46;85.03
21781;BME280;52576;53.614;9.894;2023-01-27T03:36:26;102367.03;;;3.46;85.08
21781;BME280;52576;53.614;9.894;2023-01-27T03:38:46;102373.09;;;3.43;85.08
21781;BME280;52576;53.614;9.894;2023-01-27T03:41:11;102380.88;;;3.41;85.25
21781;BME280;52576;53.614;9.894;2023-01-27T03:43:31;102385.22;;;3.41;85.06
21781;BME280;52576;53.614;9.894;2023-01-27T03:45:51;102386.06;;;3.41;85.13
21781;BME280;52576;53.614;9.894;2023-01-27T03:48:12;102390.41;;;3.41;85.13
21781;BME280;52576;53.614;9.894;2023-01-27T03:50:19;102390.41;;;3.41;85.07
21781;BME280;52576;53.614;9.894;2023-01-27T03:52:32;102395.59;;;3.41;84.94
21781;BME280;52576;53.614;9.894;2023-01-27T03:54:35;102395.59;;;3.41;85.16
21781;BME280;52576;53.614;9.894;2023-01-27T03:56:39;102393.03;;;3.38;84.80
21781;BME280;52576;53.614;9.894;2023-01-27T03:58:42;102400.78;;;3.38;85.07
21781;BME280;52576;53.614;9.894;2023-01-27T04:00:48;102390.44;;;3.38;84.76
21781;BME280;52576;53.614;9.894;2023-01-27T04:02:52;102400.78;;;3.38;84.80
21781;BME280;52576;53.614;9.894;2023-01-27T04:05:12;102389.59;;;3.37;84.90
21781;BME280;52576;53.614;9.894;2023-01-27T04:07:35;102388.75;;;3.37;85.00
21781;BME280;52576;53.614;9.894;2023-01-27T04:09:38;102395.69;;;3.35;84.68
21781;BME280;52576;53.614;9.894;2023-01-27T04:11:41;102393.09;;;3.35;84.81
21781;BME280;52576;53.614;9.894;2023-01-27T04:13:59;102398.25;;;3.35;84.68
21781;BME280;52576;53.614;9.894;2023-01-27T04:16:02;102401.72;;;3.35;84.47
21781;BME280;52576;53.614;9.894;2023-01-27T04:18:06;102400.84;;;3.35;84.60
21781;BME280;52576;53.614;9.894;2023-01-27T04:20:10;102406.03;;;3.35;84.57
21781;BME280;52576;53.614;9.894;2023-01-27T04:22:14;102398.25;;;3.35;84.49
21781;BME280;52576;53.614;9.894;2023-01-27T04:24:19;102406.06;;;3.33;84.39
21781;BME280;52576;53.614;9.894;2023-01-27T04:26:25;102402.59;;;3.33;84.38
21781;BME280;52576;53.614;9.894;2023-01-27T04:28:33;102405.19;;;3.34;84.59
21781;BME280;52576;53.614;9.894;2023-01-27T04:30:45;102405.19;;;3.34;84.38
21781;BME280;52576;53.614;9.894;2023-01-27T04:32:48;102402.56;;;3.36;84.24
21781;BME280;52576;53.614;9.894;2023-01-27T04:34:51;102406.03;;;3.35;84.30
21781;BME280;52576;53.614;9.894;2023-01-27T04:36:55;102406.91;;;3.34;84.28
21781;BME280;52576;53.614;9.894;2023-01-27T04:38:58;102406.91;;;3.34;84.01
21781;BME280;52576;53.614;9.894;2023-01-27T04:41:03;102415.56;;;3.33;83.70
21781;BME280;52576;53.614;9.894;2023-01-27T04:43:06;102416.44;;;3.32;83.56
21781;BME280;52576;53.614;9.894;2023-01-27T04:45:09;102412.13;;;3.31;83.49
21781;BME280;52576;53.614;9.894;2023-01-27T04:47:13;102419.91;;;3.31;83.59
21781;BME280;52576;53.614;9.894;2023-01-27T04:49:16;102418.19;;;3.30;83.54
21781;BME280;52576;53.614;9.894;2023-01-27T04:51:19;102423.38;;;3.30;83.23
21781;BME280;52576;53.614;9.894;2023-01-27T04:53:23;102421.66;;;3.29;83.33
21781;BME280;52576;53.614;9.894;2023-01-27T04:55:26;102425.97;;;3.28;83.44
21781;BME280;52576;53.614;9.894;2023-01-27T04:57:30;102424.25;;;3.29;83.52
21781;BME280;52576;53.614;9.894;2023-01-27T04:59:33;102425.97;;;3.30;83.57
21781;BME280;52576;53.614;9.894;2023-01-27T05:01:37;102426.84;;;3.29;83.63
21781;BME280;52576;53.614;9.894;2023-01-27T05:03:40;102438.91;;;3.30;83.57
21781;BME280;52576;53.614;9.894;2023-01-27T05:05:43;102442.38;;;3.29;83.74
21781;BME280;52576;53.614;9.894;2023-01-27T05:07:46;102445.84;;;3.29;83.56
21781;BME280;52576;53.614;9.894;2023-01-27T05:09:49;102446.72;;;3.28;83.67
21781;BME280;52576;53.614;9.894;2023-01-27T05:11:52;102451.03;;;3.28;83.44
21781;BME280;52576;53.614;9.894;2023-01-27T05:13:56;102449.31;;;3.27;83.44
21781;BME280;52576;53.614;9.894;2023-01-27T05:16:04;102452.78;;;3.26;83.52
21781;BME280;52576;53.614;9.894;2023-01-27T05:18:07;102454.53;;;3.24;83.55
21781;BME280;52576;53.614;9.894;2023-01-27T05:20:11;102456.25;;;3.22;83.42
21781;BME280;52576;53.614;9.894;2023-01-27T05:22:14;102453.69;;;3.19;83.36
21781;BME280;52576;53.614;9.894;2023-01-27T05:24:17;102445.06;;;3.17;83.50
21781;BME280;52576;53.614;9.894;2023-01-27T05:26:22;102439.03;;;3.15;83.40
21781;BME280;52576;53.614;9.894;2023-01-27T05:28:25;102438.19;;;3.13;83.32
21781;BME280;52576;53.614;9.894;2023-01-27T05:30:32;102433.94;;;3.12;83.24
21781;BME280;52576;53.614;9.894;2023-01-27T05:32:35;102438.28;;;3.08;83.40
21781;BME280;52576;53.614;9.894;2023-01-27T05:34:38;102444.34;;;3.05;83.13
21781;BME280;52576;53.614;9.894;2023-01-27T05:36:41;102445.22;;;3.01;82.92
21781;BME280;52576;53.614;9.894;2023-01-27T05:38:44;102448.69;;;3.00;82.89
21781;BME280;52576;53.614;9.894;2023-01-27T05:40:47;102442.66;;;2.98;82.92
21781;BME280;52576;53.614;9.894;2023-01-27T05:42:51;102440.94;;;2.97;82.91
21781;BME280;52576;53.614;9.894;2023-01-27T05:44:54;102435.78;;;2.94;82.85
21781;BME280;52576;53.614;9.894;2023-01-27T05:46:58;102443.56;;;2.91;82.85
21781;BME280;52576;53.614;9.894;2023-01-27T05:49:03;102443.63;;;2.87;82.95
21781;BME280;52576;53.614;9.894;2023-01-27T05:51:06;102444.50;;;2.86;83.12
21781;BME280;52576;53.614;9.894;2023-01-27T05:53:09;102449.69;;;2.84;83.13
21781;BME280;52576;53.614;9.894;2023-01-27T05:55:13;102462.66;;;2.84;83.18
21781;BME280;52576;53.614;9.894;2023-01-27T05:57:16;102466.97;;;2.84;83.41
21781;BME280;52576;53.614;9.894;2023-01-27T05:59:19;102466.13;;;2.82;83.43
21781;BME280;52576;53.614;9.894;2023-01-27T06:01:24;102476.47;;;2.82;83.49
21781;BME280;52576;53.614;9.894;2023-01-27T06:03:28;102468.72;;;2.80;83.52
21781;BME280;52576;53.614;9.894;2023-01-27T06:05:31;102477.34;;;2.79;83.52
21781;BME280;52576;53.614;9.894;2023-01-27T06:07:34;102477.34;;;2.79;83.79
21781;BME280;52576;53.614;9.894;2023-01-27T06:09:37;102484.25;;;2.79;83.78
21781;BME280;52576;53.614;9.894;2023-01-27T06:11:40;102481.69;;;2.79;83.78
21781;BME280;52576;53.614;9.894;2023-01-27T06:13:44;102485.13;;;2.78;83.85
21781;BME280;52576;53.614;9.894;2023-01-27T06:15:47;102482.53;;;2.78;83.95
21781;BME280;52576;53.614;9.894;2023-01-27T06:17:51;102486.00;;;2.78;83.87
21781;BME280;52576;53.614;9.894;2023-01-27T06:19:55;102479.97;;;2.76;83.99
21781;BME280;52576;53.614;9.894;2023-01-27T06:21:58;102480.84;;;2.75;84.09
21781;BME280;52576;53.614;9.894;2023-01-27T06:24:03;102488.63;;;2.73;84.14
21781;BME280;52576;53.614;9.894;2023-01-27T06:26:08;102497.25;;;2.74;84.02
21781;BME280;52576;53.614;9.894;2023-01-27T06:28:12;102493.78;;;2.73;83.97
21781;BME280;52576;53.614;9.894;2023-01-27T06:30:30;102503.28;;;2.75;83.94
21781;BME280;52576;53.614;9.894;2023-01-27T06:32:34;102503.28;;;2.73;84.29
21781;BME280;52576;53.614;9.894;2023-01-27T06:34:39;102509.31;;;2.73;84.34
21781;BME280;52576;53.614;9.894;2023-01-27T06:36:45;102504.16;;;2.73;84.25
21781;BME280;52576;53.614;9.894;2023-01-27T06:38:48;102512.78;;;2.74;84.29
21781;BME280;52576;53.614;9.894;2023-01-27T06:40:53;102519.66;;;2.77;84.28
21781;BME280;52576;53.614;9.894;2023-01-27T06:42:56;102518.81;;;2.76;84.34
21781;BME280;52576;53.614;9.894;2023-01-27T06:44:58;102518.81;;;2.76;84.12
21781;BME280;52576;53.614;9.894;2023-01-27T06:47:02;102530.03;;;2.77;84.27
21781;BME280;52576;53.614;9.894;2023-01-27T06:49:05;102520.53;;;2.77;84.19
21781;BME280;52576;53.614;9.894;2023-01-27T06:51:08;102529.16;;;2.76;84.23
21781;BME280;52576;53.614;9.894;2023-01-27T06:53:13;102530.88;;;2.76;84.20
21781;BME280;52576;53.614;9.894;2023-01-27T06:55:16;102535.22;;;2.73;84.20
21781;BME280;52576;53.614;9.894;2023-01-27T06:57:20;102543.00;;;2.72;84.16
21781;BME280;52576;53.614;9.894;2023-01-27T06:59:23;102543.00;;;2.70;84.07
21781;BME280;52576;53.614;9.894;2023-01-27T07:01:26;102539.56;;;2.67;84.19
21781;BME280;52576;53.614;9.894;2023-01-27T07:03:29;102546.47;;;2.65;84.15
21781;BME280;52576;53.614;9.894;2023-01-27T07:05:32;102548.22;;;2.63;84.25
21781;BME280;52576;53.614;9.894;2023-01-27T07:07:36;102558.63;;;2.60;84.14
21781;BME280;52576;53.614;9.894;2023-01-27T07:09:40;102563.78;;;2.58;84.29
21781;BME280;52576;53.614;9.894;2023-01-27T07:11:53;102565.53;;;2.56;84.42
21781;BME280;52576;53.614;9.894;2023-01-27T07:13:56;102566.41;;;2.55;84.45
21781;BME280;52576;53.614;9.894;2023-01-27T07:15:59;102579.34;;;2.54;84.46
21781;BME280;52576;53.614;9.894;2023-01-27T07:18:03;102580.22;;;2.53;84.45
21781;BME280;52576;53.614;9.894;2023-01-27T07:20:10;102584.53;;;2.54;84.53
21781;BME280;52576;53.614;9.894;2023-01-27T07:22:14;102582.78;;;2.54;84.70
21781;BME280;52576;53.614;9.894;2023-01-27T07:24:17;102585.38;;;2.54;84.38
21781;BME280;52576;53.614;9.894;2023-01-27T07:26:22;102583.66;;;2.55;84.56
21781;BME280;52576;53.614;9.894;2023-01-27T07:28:26;102587.97;;;2.56;84.45
21781;BME280;52576;53.614;9.894;2023-01-27T07:30:29;102586.22;;;2.58;84.54
21781;BME280;52576;53.614;9.894;2023-01-27T07:32:34;102593.13;;;2.59;84.52
21781;BME280;52576;53.614;9.894;2023-01-27T07:34:37;102594.84;;;2.60;84.71
21781;BME280;52576;53.614;9.894;2023-01-27T07:36:40;102593.09;;;2.62;84.54
21781;BME280;52576;53.614;9.894;2023-01-27T07:38:43;102591.34;;;2.64;84.64
21781;BME280;52576;53.614;9.894;2023-01-27T07:40:46;102599.97;;;2.66;84.59
21781;BME280;52576;53.614;9.894;2023-01-27T07:42:51;102599.97;;;2.66;84.56
21781;BME280;52576;53.614;9.894;2023-01-27T07:44:54;102601.69;;;2.65;84.51
21781;BME280;52576;53.614;9.894;2023-01-27T07:46:58;102603.41;;;2.68;84.53
21781;BME280;52576;53.614;9.894;2023-01-27T07:49:01;102607.72;;;2.69;84.44
21781;BME280;52576;53.614;9.894;2023-01-27T07:51:04;102604.28;;;2.68;84.35
21781;BME280;52576;53.614;9.894;2023-01-27T07:53:09;102605.13;;;2.69;84.43
21781;BME280;52576;53.614;9.894;2023-01-27T07:55:12;102605.13;;;2.69;84.25
21781;BME280;52576;53.614;9.894;2023-01-27T07:57:15;102602.56;;;2.69;84.12
21781;BME280;52576;53.614;9.894;2023-01-27T07:59:20;102600.84;;;2.68;84.21
21781;BME280;52576;53.614;9.894;2023-01-27T08:01:23;102601.69;;;2.67;83.87
21781;BME280;52576;53.614;9.894;2023-01-27T08:03:26;102600.84;;;2.66;84.13
21781;BME280;52576;53.614;9.894;2023-01-27T08:05:32;102614.63;;;2.68;84.12
21781;BME280;52576;53.614;9.894;2023-01-27T08:07:35;102609.47;;;2.70;84.01
21781;BME280;52576;53.614;9.894;2023-01-27T08:09:38;102611.19;;;2.71;84.04
21781;BME280;52576;53.614;9.894;2023-01-27T08:11:41;102615.50;;;2.72;84.10
21781;BME280;52576;53.614;9.894;2023-01-27T08:13:44;102619.81;;;2.73;83.89
21781;BME280;52576;53.614;9.894;2023-01-27T08:15:54;102606.00;;;2.72;84.04
21781;BME280;52576;53.614;9.894;2023-01-27T08:17:58;102622.38;;;2.76;84.16
21781;BME280;52576;53.614;9.894;2023-01-27T08:20:03;102618.06;;;2.77;84.04
21781;BME280;52576;53.614;9.894;2023-01-27T08:22:06;102620.66;;;2.78;83.92
21781;BME280;52576;53.614;9.894;2023-01-27T08:24:09;102624.09;;;2.80;84.18
21781;BME280;52576;53.614;9.894;2023-01-27T08:26:13;102618.91;;;2.82;84.16
21781;BME280;52576;53.614;9.894;2023-01-27T08:28:17;102616.31;;;2.83;84.00
21781;BME280;52576;53.614;9.894;2023-01-27T08:30:21;102626.66;;;2.83;84.03
21781;BME280;52576;53.614;9.894;2023-01-27T08:32:25;102624.06;;;2.83;83.97
21781;BME280;52576;53.614;9.894;2023-01-27T08:34:29;102631.84;;;2.85;84.07
21781;BME280;52576;53.614;9.894;2023-01-27T08:36:32;102636.13;;;2.87;83.99
21781;BME280;52576;53.614;9.894;2023-01-27T08:38:35;102634.38;;;2.89;84.09
21781;BME280;52576;53.614;9.894;2023-01-27T08:40:39;102633.50;;;2.92;84.00
21781;BME280;52576;53.614;9.894;2023-01-27T08:42:43;102635.22;;;2.94;84.01
21781;BME280;52576;53.614;9.894;2023-01-27T08:44:46;102633.47;;;2.96;83.95
21781;BME280;52576;53.614;9.894;2023-01-27T08:46:49;102630.91;;;2.96;83.77
21781;BME280;52576;53.614;9.894;2023-01-27T08:48:55;102634.34;;;2.98;83.68
21781;BME280;52576;53.614;9.894;2023-01-27T08:50:59;102638.63;;;3.02;83.69
21781;BME280;52576;53.614;9.894;2023-01-27T08:53:02;102636.91;;;3.04;83.68
21781;BME280;52576;53.614;9.894;2023-01-27T08:55:06;102635.19;;;3.03;83.31
21781;BME280;52576;53.614;9.894;2023-01-27T08:57:09;102635.19;;;3.02;83.42
21781;BME280;52576;53.614;9.894;2023-01-27T08:59:12;102630.00;;;3.00;83.06
21781;BME280;52576;53.614;9.894;2023-01-27T09:01:15;102636.06;;;2.99;83.03
21781;BME280;52576;53.614;9.894;2023-01-27T09:03:18;102639.53;;;2.98;83.17
21781;BME280;52576;53.614;9.894;2023-01-27T09:05:23;102644.69;;;3.00;82.90
21781;BME280;52576;53.614;9.894;2023-01-27T09:07:26;102641.22;;;3.02;83.11
21781;BME280;52576;53.614;9.894;2023-01-27T09:09:29;102642.94;;;3.06;83.25
21781;BME280;52576;53.614;9.894;2023-01-27T09:11:32;102644.66;;;3.08;83.01
21781;BME280;52576;53.614;9.894;2023-01-27T09:13:35;102653.28;;;3.10;82.94
21781;BME280;52576;53.614;9.894;2023-01-27T09:15:38;102658.47;;;3.10;83.01
21781;BME280;52576;53.614;9.894;2023-01-27T09:17:41;102663.66;;;3.10;82.92
21781;BME280;52576;53.614;9.894;2023-01-27T09:19:44;102674.00;;;3.10;82.79
21781;BME280;52576;53.614;9.894;2023-01-27T09:21:49;102674.00;;;3.10;82.86
21781;BME280;52576;53.614;9.894;2023-01-27T09:23:52;102678.28;;;3.12;82.91
21781;BME280;52576;53.614;9.894;2023-01-27T09:25:55;102682.63;;;3.12;82.80
21781;BME280;52576;53.614;9.894;2023-01-27T09:27:58;102678.31;;;3.11;82.69
21781;BME280;52576;53.614;9.894;2023-01-27T09:30:02;102686.06;;;3.14;82.42
21781;BME280;52576;53.614;9.894;2023-01-27T09:32:05;102675.69;;;3.14;82.28
21781;BME280;52576;53.614;9.894;2023-01-27T09:34:10;102677.41;;;3.13;82.38
21781;BME280;52576;53.614;9.894;2023-01-27T09:36:16;102681.72;;;3.14;82.27
21781;BME280;52576;53.614;9.894;2023-01-27T09:38:23;102678.28;;;3.14;82.05
21781;BME280;52576;53.614;9.894;2023-01-27T09:40:30;102678.28;;;3.14;82.07
21781;BME280;52576;53.614;9.894;2023-01-27T09:42:49;102682.63;;;3.12;81.80
21781;BME280;52576;53.614;9.894;2023-01-27T09:45:16;102672.28;;;3.09;81.70
21781;BME280;52576;53.614;9.894;2023-01-27T09:47:32;102669.69;;;3.09;81.77
21781;BME280;52576;53.614;9.894;2023-01-27T09:49:51;102680.06;;;3.10;81.77
21781;BME280;52576;53.614;9.894;2023-01-27T09:52:07;102680.88;;;3.14;81.63
21781;BME280;52576;53.614;9.894;2023-01-27T09:54:46;102673.09;;;3.15;81.36
21781;BME280;52576;53.614;9.894;2023-01-27T09:56:59;102672.22;;;3.18;81.44
21781;BME280;52576;53.614;9.894;2023-01-27T09:59:20;102668.75;;;3.19;81.26
21781;BME280;52576;53.614;9.894;2023-01-27T10:01:32;102675.66;;;3.20;81.04
21781;BME280;52576;53.614;9.894;2023-01-27T10:04:06;102673.06;;;3.23;81.04
21781;BME280;52576;53.614;9.894;2023-01-27T10:06:28;102676.50;;;3.26;81.04
21781;BME280;52576;53.614;9.894;2023-01-27T10:08:55;102679.09;;;3.25;80.78
21781;BME280;52576;53.614;9.894;2023-01-27T10:11:11;102681.69;;;3.22;80.61
21781;BME280;52576;53.614;9.894;2023-01-27T10:13:24;102677.38;;;3.21;80.68
21781;BME280;52576;53.614;9.894;2023-01-27T10:15:42;102673.94;;;3.20;80.55
21781;BME280;52576;53.614;9.894;2023-01-27T10:17:55;102672.22;;;3.18;80.38
21781;BME280;52576;53.614;9.894;2023-01-27T10:20:13;102674.81;;;3.15;80.47
21781;BME280;52576;53.614;9.894;2023-01-27T10:22:29;102669.66;;;3.13;80.55
21781;BME280;52576;53.614;9.894;2023-01-27T10:24:45;102677.47;;;3.12;80.65
21781;BME280;52576;53.614;9.894;2023-01-27T10:26:54;102674.88;;;3.07;80.67
21781;BME280;52576;53.614;9.894;2023-01-27T10:29:07;102673.16;;;3.04;80.79
21781;BME280;52576;53.614;9.894;2023-01-27T10:31:14;102674.91;;;3.02;80.73
21781;BME280;52576;53.614;9.894;2023-01-27T10:33:20;102675.78;;;2.98;80.73
21781;BME280;52576;53.614;9.894;2023-01-27T10:35:27;102687.88;;;2.96;80.74
21781;BME280;52576;53.614;9.894;2023-01-27T10:37:39;102674.06;;;2.94;80.97
21781;BME280;52576;53.614;9.894;2023-01-27T10:39:52;102672.34;;;2.93;81.09
21781;BME280;52576;53.614;9.894;2023-01-27T10:42:06;102668.91;;;2.93;81.00
21781;BME280;52576;53.614;9.894;2023-01-27T10:44:27;102674.94;;;2.90;81.06
21781;BME280;52576;53.614;9.894;2023-01-27T10:46:39;102668.91;;;2.88;81.14
21781;BME280;52576;53.614;9.894;2023-01-27T10:48:51;102674.09;;;2.87;81.11
21781;BME280;52576;53.614;9.894;2023-01-27T10:50:59;102675.00;;;2.86;81.11
21781;BME280;52576;53.614;9.894;2023-01-27T10:53:09;102671.53;;;2.85;80.92
21781;BME280;52576;53.614;9.894;2023-01-27T10:55:16;102671.53;;;2.85;81.10
21781;BME280;52576;53.614;9.894;2023-01-27T10:57:27;102665.47;;;2.86;81.00
21781;BME280;52576;53.614;9.894;2023-01-27T10:59:37;102665.47;;;2.86;81.14
21781;BME280;52576;53.614;9.894;2023-01-27T11:02:04;102662.00;;;2.87;80.93
21781;BME280;52576;53.614;9.894;2023-01-27T11:04:16;102664.59;;;2.87;80.75
21781;BME280;52576;53.614;9.894;2023-01-27T11:06:22;102663.72;;;2.88;80.57
21781;BME280;52576;53.614;9.894;2023-01-27T11:08:28;102665.47;;;2.89;80.63
21781;BME280;52576;53.614;9.894;2023-01-27T11:10:38;102661.13;;;2.91;80.13